createdAt,value
2023-01-19T00:01:43.592Z,69.89
2023-01-19T00:04:09.943Z,69.70
2023-01-19T00:06:36.332Z,69.30
2023-01-19T00:09:03.076Z,69.69
2023-01-19T00:11:29.431Z,70.05
2023-01-19T00:13:56.086Z,70.75
2023-01-19T00:16:23.322Z,70.76
2023-01-19T00:18:52.898Z,70.42
2023-01-19T00:21:19.654Z,70.68
2023-01-19T00:23:50.918Z,71.10
2023-01-19T00:26:17.325Z,70.87
2023-01-19T00:28:44.066Z,69.62
2023-01-19T00:31:10.487Z,69.11
2023-01-19T00:33:37.278Z,69.39
2023-01-19T00:36:04.161Z,68.80
2023-01-19T00:38:30.506Z,67.86
2023-01-19T00:40:56.812Z,68.05
2023-01-19T00:43:23.163Z,68.08
2023-01-19T00:45:49.488Z,68.37
2023-01-19T00:48:15.804Z,67.87
2023-01-19T00:50:42.156Z,68.73
2023-01-19T00:53:08.486Z,69.32
2023-01-19T00:55:35.460Z,70.70
2023-01-19T00:58:02.877Z,70.54
2023-01-19T01:00:29.244Z,71.00
2023-01-19T01:02:55.652Z,70.90
2023-01-19T01:05:22.236Z,70.38
2023-01-19T01:07:49.503Z,70.63
2023-01-19T01:10:20.205Z,70.62
2023-01-19T01:12:55.530Z,71.06
2023-01-19T01:15:24.576Z,70.92
2023-01-19T01:17:52.912Z,70.76
2023-01-19T01:20:20.963Z,70.45
2023-01-19T01:22:49.462Z,70.16
2023-01-19T01:25:17.093Z,69.97
2023-01-19T01:27:43.588Z,69.84
2023-01-19T01:30:11.129Z,70.38
2023-01-19T01:32:37.527Z,70.82
2023-01-19T01:35:03.991Z,71.32
2023-01-19T01:37:30.270Z,69.79
2023-01-19T01:39:56.600Z,70.43
2023-01-19T01:42:27.315Z,71.24
2023-01-19T01:44:55.300Z,69.76
2023-01-19T01:47:30.510Z,69.53
2023-01-19T01:50:06.195Z,69.72
2023-01-19T01:52:34.208Z,69.73
2023-01-19T01:55:02.911Z,69.05
2023-01-19T01:57:29.851Z,70.35
2023-01-19T01:59:57.245Z,70.42
2023-01-19T02:02:44.027Z,70.22
2023-01-19T02:05:16.166Z,69.30
2023-01-19T02:08:04.229Z,69.67
2023-01-19T02:10:50.014Z,69.89
2023-01-19T02:13:22.330Z,69.80
2023-01-19T02:15:49.957Z,69.68
2023-01-19T02:18:16.675Z,69.97
2023-01-19T02:21:01.726Z,69.50
2023-01-19T02:23:37.976Z,70.44
2023-01-19T02:26:04.769Z,69.04
2023-01-19T02:28:31.360Z,69.71
2023-01-19T02:30:57.802Z,69.18
2023-01-19T02:33:24.397Z,69.37
2023-01-19T02:35:51.905Z,69.03
2023-01-19T02:38:19.967Z,69.07
2023-01-19T02:40:47.508Z,69.48
2023-01-19T02:43:14.730Z,69.23
2023-01-19T02:45:42.213Z,68.85
2023-01-19T02:48:08.711Z,69.85
2023-01-19T02:50:45.860Z,69.74
2023-01-19T02:53:30.857Z,69.06
2023-01-19T02:55:59.540Z,69.90
2023-01-19T02:58:33.511Z,68.79
2023-01-19T03:01:12.440Z,69.22
2023-01-19T03:03:54.184Z,68.75
2023-01-19T03:06:44.780Z,69.25
2023-01-19T03:09:20.000Z,69.45
2023-01-19T03:11:50.787Z,68.37
2023-01-19T03:14:21.765Z,68.15
2023-01-19T03:16:53.287Z,69.14
2023-01-19T03:19:23.018Z,69.00
2023-01-19T03:21:56.738Z,68.61
2023-01-19T03:24:24.916Z,68.72
2023-01-19T03:27:03.658Z,68.33
2023-01-19T03:29:32.310Z,68.65
2023-01-19T03:32:01.708Z,68.74
2023-01-19T03:34:28.921Z,68.53
2023-01-19T03:36:57.583Z,68.53
2023-01-19T03:39:24.913Z,67.84
2023-01-19T03:41:59.770Z,68.72
2023-01-19T03:44:28.310Z,68.40
2023-01-19T03:46:55.244Z,68.23
2023-01-19T03:49:21.645Z,67.50
2023-01-19T03:51:47.914Z,67.99
2023-01-19T03:54:14.393Z,67.62
2023-01-19T03:56:40.769Z,68.53
2023-01-19T03:59:07.397Z,67.85
2023-01-19T04:01:33.886Z,68.82
2023-01-19T04:04:00.751Z,67.56
2023-01-19T04:06:28.058Z,68.64
2023-01-19T04:08:54.544Z,68.42
2023-01-19T04:11:20.926Z,67.64
2023-01-19T04:13:47.819Z,68.86
2023-01-19T04:16:14.212Z,68.59
2023-01-19T04:18:40.802Z,68.19
2023-01-19T04:21:07.703Z,69.34
2023-01-19T04:23:34.160Z,68.96
2023-01-19T04:26:04.789Z,68.50
2023-01-19T04:28:31.963Z,69.28
2023-01-19T04:30:58.670Z,69.47
2023-01-19T04:33:26.499Z,69.19
2023-01-19T04:35:54.388Z,69.44
2023-01-19T04:38:21.125Z,67.98
2023-01-19T04:40:48.590Z,68.34
2023-01-19T04:43:15.163Z,68.73
2023-01-19T04:45:41.494Z,68.92
2023-01-19T04:48:07.869Z,67.60
2023-01-19T04:50:34.231Z,68.25
2023-01-19T04:53:01.089Z,68.74
2023-01-19T04:55:28.039Z,68.26
2023-01-19T04:57:54.421Z,68.95
2023-01-19T05:00:21.065Z,67.84
2023-01-19T05:02:47.637Z,69.15
2023-01-19T05:05:14.002Z,69.00
2023-01-19T05:07:40.490Z,68.40
2023-01-19T05:10:07.210Z,68.61
2023-01-19T05:12:33.541Z,67.98
2023-01-19T05:15:00.144Z,68.33
2023-01-19T05:17:26.451Z,68.21
2023-01-19T05:19:52.745Z,68.14
2023-01-19T05:22:19.118Z,68.56
2023-01-19T05:24:45.482Z,68.43
2023-01-19T05:27:12.239Z,68.96
2023-01-19T05:29:38.527Z,68.62
2023-01-19T05:32:05.155Z,68.24
2023-01-19T05:34:31.504Z,69.02
2023-01-19T05:36:57.829Z,68.51
2023-01-19T05:39:25.076Z,67.63
2023-01-19T05:41:51.407Z,67.51
2023-01-19T05:44:17.725Z,67.44
2023-01-19T05:46:44.323Z,68.17
2023-01-19T05:49:12.123Z,68.81
2023-01-19T05:51:38.878Z,69.11
2023-01-19T05:54:05.638Z,67.59
2023-01-19T05:56:32.726Z,68.94
2023-01-19T05:58:59.724Z,68.98
2023-01-19T06:01:26.050Z,68.13
2023-01-19T06:03:52.354Z,68.14
2023-01-19T06:06:18.724Z,68.37
2023-01-19T06:08:45.376Z,68.47
2023-01-19T06:11:11.749Z,68.41
2023-01-19T06:13:41.320Z,69.38
2023-01-19T06:16:08.598Z,69.51
2023-01-19T06:18:34.936Z,69.47
2023-01-19T06:21:07.826Z,68.93
2023-01-19T06:23:35.009Z,69.31
2023-01-19T06:26:01.727Z,69.30
2023-01-19T06:28:28.054Z,69.20
2023-01-19T06:30:55.435Z,69.82
2023-01-19T06:33:21.884Z,68.99
2023-01-19T06:35:49.030Z,68.84
2023-01-19T06:38:17.183Z,68.92
2023-01-19T06:40:43.522Z,69.01
2023-01-19T06:43:09.934Z,68.27
2023-01-19T06:45:36.673Z,68.64
2023-01-19T06:48:04.147Z,67.91
2023-01-19T06:50:30.463Z,69.54
2023-01-19T06:52:56.862Z,69.33
2023-01-19T06:55:23.198Z,68.61
2023-01-19T06:58:01.250Z,68.57
2023-01-19T07:00:27.585Z,68.46
2023-01-19T07:02:53.893Z,69.39
2023-01-19T07:05:22.032Z,68.51
2023-01-19T07:07:55.645Z,68.78
2023-01-19T07:10:22.596Z,68.97
2023-01-19T07:12:48.883Z,68.97
2023-01-19T07:15:16.222Z,68.26
2023-01-19T07:17:42.774Z,68.46
2023-01-19T07:20:12.835Z,68.90
2023-01-19T07:22:39.249Z,68.57
2023-01-19T07:25:05.915Z,69.35
2023-01-19T07:27:32.192Z,69.36
2023-01-19T07:29:59.750Z,69.32
2023-01-19T07:32:26.075Z,68.47
2023-01-19T07:34:52.403Z,68.43
2023-01-19T07:37:18.774Z,69.48
2023-01-19T07:39:45.118Z,68.96
2023-01-19T07:42:11.475Z,69.36
2023-01-19T07:44:38.101Z,68.37
2023-01-19T07:47:07.391Z,69.33
2023-01-19T07:49:33.671Z,70.05
2023-01-19T07:51:59.976Z,68.95
2023-01-19T07:54:26.322Z,69.27
2023-01-19T07:56:55.516Z,69.73
2023-01-19T07:59:21.810Z,69.53
2023-01-19T08:01:48.202Z,68.88
2023-01-19T08:04:14.635Z,68.79
2023-01-19T08:06:44.665Z,69.78
2023-01-19T08:09:11.650Z,68.63
2023-01-19T08:11:37.988Z,68.88
2023-01-19T08:14:06.953Z,69.72
2023-01-19T08:16:34.278Z,69.71
2023-01-19T08:19:00.663Z,70.64
2023-01-19T08:21:27.337Z,69.42
2023-01-19T08:23:57.531Z,69.41
2023-01-19T08:26:29.176Z,69.69
2023-01-19T08:28:56.493Z,69.38
2023-01-19T08:31:24.815Z,69.67
2023-01-19T08:33:51.441Z,69.08
2023-01-19T08:36:17.833Z,68.54
2023-01-19T08:38:44.953Z,69.57
2023-01-19T08:41:11.858Z,68.52
2023-01-19T08:43:38.255Z,68.46
2023-01-19T08:46:05.356Z,68.31
2023-01-19T08:48:31.853Z,70.45
2023-01-19T08:50:59.117Z,68.79
2023-01-19T08:53:25.959Z,68.74
2023-01-19T08:56:01.131Z,69.36
2023-01-19T08:58:28.292Z,70.04
2023-01-19T09:00:54.776Z,69.19
2023-01-19T09:03:22.681Z,70.78
2023-01-19T09:05:49.126Z,69.97
2023-01-19T09:08:15.645Z,69.96
2023-01-19T09:10:49.461Z,68.82
2023-01-19T09:13:16.460Z,70.10
2023-01-19T09:15:43.375Z,69.50
2023-01-19T09:18:13.519Z,69.01
2023-01-19T09:20:42.321Z,69.02
2023-01-19T09:23:10.645Z,69.25
2023-01-19T09:25:40.418Z,69.38
2023-01-19T09:28:07.847Z,68.59
2023-01-19T09:30:36.615Z,68.01
2023-01-19T09:33:06.297Z,67.89
2023-01-19T09:35:35.438Z,69.13
2023-01-19T09:38:02.154Z,67.78
2023-01-19T09:40:28.781Z,69.36
2023-01-19T09:43:01.158Z,68.76
2023-01-19T09:45:39.569Z,68.83
2023-01-19T09:48:13.454Z,68.96
2023-01-19T09:50:46.489Z,69.27
2023-01-19T09:53:31.477Z,68.17
2023-01-19T09:55:57.827Z,69.65
2023-01-19T09:58:24.188Z,69.13
2023-01-19T10:00:55.538Z,68.60
2023-01-19T10:03:23.904Z,67.33
2023-01-19T10:05:53.575Z,67.79
2023-01-19T10:08:29.105Z,68.84
2023-01-19T10:10:57.706Z,68.04
2023-01-19T10:13:30.133Z,69.51
2023-01-19T10:16:02.717Z,69.11
2023-01-19T10:18:36.863Z,68.11
2023-01-19T10:21:05.324Z,67.90
2023-01-19T10:23:32.013Z,69.21
2023-01-19T10:26:00.957Z,68.46
2023-01-19T10:28:27.859Z,68.08
2023-01-19T10:30:54.838Z,68.44
2023-01-19T10:33:21.307Z,68.54
2023-01-19T10:35:48.739Z,68.04
2023-01-19T10:38:15.589Z,69.13
2023-01-19T10:40:41.994Z,69.36
2023-01-19T10:43:46.784Z,68.90
2023-01-19T10:46:18.737Z,68.99
2023-01-19T10:48:47.813Z,68.38
2023-01-19T10:51:14.380Z,67.67
2023-01-19T10:53:42.826Z,69.83
2023-01-19T10:56:15.533Z,69.47
2023-01-19T10:58:41.975Z,68.15
2023-01-19T11:01:16.151Z,68.13
2023-01-19T11:03:42.578Z,69.28
2023-01-19T11:06:18.741Z,67.91
2023-01-19T11:08:45.995Z,68.13
2023-01-19T11:11:12.442Z,69.00
2023-01-19T11:13:42.239Z,69.40
2023-01-19T11:16:27.332Z,67.68
2023-01-19T11:18:55.207Z,68.70
2023-01-19T11:21:26.073Z,67.83
2023-01-19T11:23:57.656Z,67.95
2023-01-19T11:26:29.050Z,67.87
2023-01-19T11:28:56.522Z,68.53
2023-01-19T11:31:28.937Z,67.46
2023-01-19T11:33:56.996Z,69.36
2023-01-19T11:36:24.718Z,69.66
2023-01-19T11:39:02.503Z,67.68
2023-01-19T11:41:30.848Z,67.97
2023-01-19T11:44:03.035Z,68.19
2023-01-19T11:46:33.171Z,68.61
2023-01-19T11:49:03.311Z,67.71
2023-01-19T11:51:35.598Z,68.49
2023-01-19T11:54:02.925Z,69.61
2023-01-19T11:56:29.386Z,67.99
2023-01-19T11:58:56.258Z,68.33
2023-01-19T12:01:24.719Z,67.96
2023-01-19T12:04:17.528Z,67.58
2023-01-19T12:06:47.698Z,69.16
2023-01-19T12:09:43.253Z,68.52
2023-01-19T12:12:28.132Z,68.97
2023-01-19T12:15:05.165Z,68.45
2023-01-19T12:17:43.934Z,69.29
2023-01-19T12:20:14.874Z,68.92
2023-01-19T12:22:45.099Z,68.71
2023-01-19T12:25:20.009Z,68.62
2023-01-19T12:27:48.085Z,68.45
2023-01-19T12:30:25.436Z,68.51
2023-01-19T12:32:52.175Z,68.41
2023-01-19T12:35:50.640Z,69.62
2023-01-19T12:38:35.573Z,67.77
2023-01-19T12:41:18.552Z,68.76
2023-01-19T12:43:44.839Z,68.60
2023-01-19T12:46:30.920Z,68.71
2023-01-19T12:49:09.825Z,67.47
2023-01-19T12:51:36.195Z,69.04
2023-01-19T12:54:05.082Z,68.52
2023-01-19T12:56:36.700Z,67.55
2023-01-19T12:59:03.989Z,68.22
2023-01-19T13:01:31.059Z,69.11
2023-01-19T13:04:01.288Z,68.89
2023-01-19T13:07:04.636Z,67.60
2023-01-19T13:09:35.453Z,68.94
2023-01-19T13:12:13.810Z,68.85
2023-01-19T13:14:41.064Z,68.20
2023-01-19T13:17:26.411Z,68.28
2023-01-19T13:19:55.792Z,67.54
2023-01-19T13:22:41.017Z,68.29
2023-01-19T13:25:10.373Z,67.00
2023-01-19T13:27:37.314Z,67.56
2023-01-19T13:30:10.434Z,67.32
2023-01-19T13:32:39.272Z,67.73
2023-01-19T13:35:06.756Z,67.73
2023-01-19T13:37:38.851Z,66.08
2023-01-19T13:40:05.694Z,66.00
2023-01-19T13:42:35.169Z,65.83
2023-01-19T13:45:20.408Z,66.25
2023-01-19T13:47:48.169Z,66.71
2023-01-19T13:50:25.492Z,66.40
2023-01-19T13:52:54.004Z,66.52
2023-01-19T13:55:20.704Z,66.89
2023-01-19T13:57:48.259Z,65.30
2023-01-19T14:00:23.931Z,65.62
2023-01-19T14:02:52.446Z,66.03
2023-01-19T14:05:21.638Z,66.71
2023-01-19T14:07:48.154Z,66.19
2023-01-19T14:10:16.506Z,66.76
2023-01-19T14:12:58.488Z,66.06
2023-01-19T14:15:26.197Z,65.92
2023-01-19T14:18:11.188Z,67.35
2023-01-19T14:20:38.066Z,67.31
2023-01-19T14:23:05.074Z,66.52
2023-01-19T14:25:35.558Z,66.84
2023-01-19T14:28:20.655Z,65.52
2023-01-19T14:30:55.099Z,66.36
2023-01-19T14:33:41.485Z,65.92
2023-01-19T14:36:09.184Z,65.91
2023-01-19T14:38:35.494Z,65.82
2023-01-19T14:41:02.250Z,65.91
2023-01-19T14:43:29.692Z,66.35
2023-01-19T14:45:56.184Z,65.92
2023-01-19T14:48:22.607Z,66.14
2023-01-19T14:51:02.809Z,67.40
2023-01-19T14:53:33.955Z,66.57
2023-01-19T14:56:01.912Z,66.53
2023-01-19T14:58:31.276Z,65.57
2023-01-19T15:00:58.031Z,67.50
2023-01-19T15:03:34.953Z,65.59
2023-01-19T15:06:14.706Z,66.45
2023-01-19T15:08:41.283Z,67.10
2023-01-19T15:11:10.743Z,65.90
2023-01-19T15:13:37.543Z,65.86
2023-01-19T15:16:04.001Z,67.04
2023-01-19T15:18:30.323Z,66.16
2023-01-19T15:21:02.634Z,66.44
2023-01-19T15:23:29.667Z,67.19
2023-01-19T15:26:02.611Z,66.01
2023-01-19T15:28:29.598Z,67.12
2023-01-19T15:30:57.482Z,66.82
2023-01-19T15:33:25.184Z,66.64
2023-01-19T15:35:52.213Z,67.60
2023-01-19T15:38:18.881Z,67.01
2023-01-19T15:40:48.013Z,66.31
2023-01-19T15:43:17.434Z,66.95
2023-01-19T15:45:43.783Z,67.05
2023-01-19T15:48:13.555Z,66.32
2023-01-19T15:50:41.043Z,67.35
2023-01-19T15:53:07.817Z,67.95
2023-01-19T15:55:34.175Z,67.50
2023-01-19T15:58:03.560Z,66.83
2023-01-19T16:00:31.224Z,67.28
2023-01-19T16:02:58.184Z,68.46
2023-01-19T16:05:37.462Z,67.50
2023-01-19T16:08:10.941Z,67.90
2023-01-19T16:10:37.312Z,67.84
2023-01-19T16:13:04.074Z,68.41
2023-01-19T16:15:30.517Z,68.68
2023-01-19T16:17:56.812Z,68.29
2023-01-19T16:20:23.190Z,68.89
2023-01-19T16:22:49.501Z,69.55
2023-01-19T16:25:16.002Z,69.39
2023-01-19T16:27:42.414Z,69.30
2023-01-19T16:30:11.120Z,69.93
2023-01-19T16:32:38.406Z,68.34
2023-01-19T16:35:05.034Z,68.72
2023-01-19T16:37:31.528Z,68.80
2023-01-19T16:39:58.115Z,68.42
2023-01-19T16:42:24.577Z,68.84
2023-01-19T16:44:51.154Z,68.77
2023-01-19T16:47:17.506Z,68.75
2023-01-19T16:49:43.805Z,69.92
2023-01-19T16:52:10.267Z,69.31
2023-01-19T16:54:39.290Z,70.82
2023-01-19T16:57:05.797Z,69.59
2023-01-19T16:59:32.625Z,69.18
2023-01-19T17:01:59.030Z,70.27
2023-01-19T17:04:27.177Z,70.09
2023-01-19T17:06:54.394Z,70.08
2023-01-19T17:09:20.767Z,68.73
2023-01-19T17:11:47.518Z,69.34
2023-01-19T17:14:15.591Z,69.12
2023-01-19T17:16:42.797Z,68.38
2023-01-19T17:19:12.856Z,68.65
2023-01-19T17:21:39.713Z,68.23
2023-01-19T17:24:06.268Z,68.58
2023-01-19T17:26:32.725Z,68.69
2023-01-19T17:29:03.443Z,68.54
2023-01-19T17:31:30.659Z,69.62
2023-01-19T17:33:57.455Z,69.67
2023-01-19T17:36:25.319Z,70.73
2023-01-19T17:38:52.424Z,70.66
2023-01-19T17:41:20.262Z,70.02
2023-01-19T17:43:46.876Z,69.60
2023-01-19T17:46:13.701Z,70.99
2023-01-19T17:48:40.173Z,69.97
2023-01-19T17:51:07.401Z,70.27
2023-01-19T17:53:33.990Z,71.98
2023-01-19T17:56:07.613Z,72.14
2023-01-19T17:58:34.257Z,72.11
2023-01-19T18:01:20.677Z,71.71
2023-01-19T18:03:47.391Z,72.75
2023-01-19T18:06:14.020Z,72.32
2023-01-19T18:08:42.109Z,72.77
2023-01-19T18:11:09.181Z,71.47
2023-01-19T18:13:35.902Z,72.99
2023-01-19T18:16:04.297Z,71.57
2023-01-19T18:18:31.062Z,72.28
2023-01-19T18:20:58.354Z,72.64
2023-01-19T18:23:24.840Z,72.50
2023-01-19T18:25:57.099Z,72.00
2023-01-19T18:28:23.401Z,72.56
2023-01-19T18:30:49.830Z,73.02
2023-01-19T18:33:17.320Z,74.10
2023-01-19T18:35:44.521Z,73.14
2023-01-19T18:38:11.050Z,73.00
2023-01-19T18:40:37.539Z,71.93
2023-01-19T18:43:03.873Z,73.08
2023-01-19T18:45:30.217Z,72.14
2023-01-19T18:47:57.893Z,73.37
2023-01-19T18:50:24.296Z,73.45
2023-01-19T18:52:51.418Z,72.45
2023-01-19T18:55:17.757Z,74.02
2023-01-19T18:57:44.272Z,74.56
2023-01-19T19:00:11.559Z,72.52
2023-01-19T19:02:38.050Z,74.54
2023-01-19T19:05:04.514Z,72.60
2023-01-19T19:07:31.192Z,73.64
2023-01-19T19:09:57.699Z,72.21
2023-01-19T19:12:24.057Z,73.42
2023-01-19T19:14:50.417Z,73.66
2023-01-19T19:17:16.896Z,73.18
2023-01-19T19:19:43.201Z,73.04
2023-01-19T19:22:09.549Z,74.62
2023-01-19T19:24:36.380Z,74.82
2023-01-19T19:27:03.144Z,73.75
2023-01-19T19:29:29.619Z,73.79
2023-01-19T19:31:56.819Z,73.30
2023-01-19T19:34:24.552Z,74.37
2023-01-19T19:36:51.144Z,74.26
2023-01-19T19:39:17.580Z,74.55
2023-01-19T19:41:43.915Z,74.12
2023-01-19T19:44:12.572Z,73.87
2023-01-19T19:46:38.974Z,73.80
2023-01-19T19:49:05.266Z,74.18
2023-01-19T19:51:31.603Z,75.80
2023-01-19T19:53:59.402Z,75.28
2023-01-19T19:56:27.824Z,74.35
2023-01-19T19:58:55.046Z,75.20
2023-01-19T20:01:25.332Z,74.71
2023-01-19T20:03:53.406Z,74.10
2023-01-19T20:06:21.420Z,74.68
2023-01-19T20:08:48.946Z,75.14
2023-01-19T20:11:17.329Z,75.50
2023-01-19T20:13:44.487Z,75.63
2023-01-19T20:16:12.588Z,74.97
2023-01-19T20:18:39.837Z,74.92
2023-01-19T20:21:13.615Z,75.55
2023-01-19T20:23:40.854Z,74.21
2023-01-19T20:26:08.669Z,75.40
2023-01-19T20:28:35.736Z,75.73
2023-01-19T20:31:12.653Z,76.11
2023-01-19T20:33:39.228Z,74.59
2023-01-19T20:36:06.190Z,75.42
2023-01-19T20:38:32.572Z,76.05
2023-01-19T20:40:58.984Z,75.24
2023-01-19T20:43:25.377Z,74.70
2023-01-19T20:45:52.684Z,73.97
2023-01-19T20:48:19.063Z,75.09
2023-01-19T20:50:45.407Z,75.08
2023-01-19T20:53:11.771Z,75.72
2023-01-19T20:55:38.112Z,74.73
2023-01-19T20:58:04.408Z,75.05
2023-01-19T21:00:30.819Z,76.01
2023-01-19T21:02:57.246Z,75.97
2023-01-19T21:05:23.995Z,74.89
2023-01-19T21:07:50.490Z,74.96
2023-01-19T21:10:17.722Z,75.43
2023-01-19T21:12:44.468Z,75.64
2023-01-19T21:15:11.336Z,75.38
2023-01-19T21:17:37.981Z,73.28
2023-01-19T21:20:04.540Z,74.48
2023-01-19T21:22:30.835Z,74.32
2023-01-19T21:24:57.270Z,74.38
2023-01-19T21:27:23.576Z,74.45
2023-01-19T21:29:49.919Z,74.58
2023-01-19T21:32:16.314Z,73.94
2023-01-19T21:34:43.775Z,73.42
2023-01-19T21:37:10.187Z,73.67
2023-01-19T21:39:36.837Z,74.16
2023-01-19T21:42:03.229Z,73.58
2023-01-19T21:44:29.550Z,74.03
2023-01-19T21:46:55.861Z,73.84
2023-01-19T21:49:22.290Z,74.41
2023-01-19T21:51:50.541Z,73.90
2023-01-19T21:54:17.166Z,73.56
2023-01-19T21:56:43.629Z,73.67
2023-01-19T21:59:12.903Z,74.20
2023-01-19T22:01:39.309Z,73.94
2023-01-19T22:04:06.118Z,74.07
2023-01-19T22:06:32.741Z,72.62
2023-01-19T22:09:00.592Z,74.30
2023-01-19T22:11:27.554Z,73.22
2023-01-19T22:13:54.269Z,73.99
2023-01-19T22:16:21.594Z,72.54
2023-01-19T22:18:56.398Z,74.30
2023-01-19T22:21:27.582Z,74.23
2023-01-19T22:23:55.439Z,73.29
2023-01-19T22:26:21.817Z,74.03
2023-01-19T22:28:48.275Z,73.49
2023-01-19T22:31:16.047Z,73.76
2023-01-19T22:33:42.478Z,73.18
2023-01-19T22:36:13.302Z,73.51
2023-01-19T22:38:41.698Z,72.49
2023-01-19T22:41:16.140Z,73.94
2023-01-19T22:43:42.616Z,73.29
2023-01-19T22:46:09.032Z,72.52
2023-01-19T22:48:35.847Z,74.13
2023-01-19T22:51:02.207Z,73.52
2023-01-19T22:53:30.092Z,73.55
2023-01-19T22:55:56.416Z,73.11
2023-01-19T22:58:22.708Z,73.39
2023-01-19T23:00:49.030Z,73.86
2023-01-19T23:03:15.316Z,73.60
2023-01-19T23:05:41.632Z,73.41
2023-01-19T23:08:07.972Z,74.46
2023-01-19T23:10:37.583Z,74.19
2023-01-19T23:13:03.852Z,73.35
2023-01-19T23:15:32.258Z,73.34
2023-01-19T23:17:58.599Z,74.15
2023-01-19T23:20:24.885Z,73.45
2023-01-19T23:22:51.161Z,73.47
2023-01-19T23:25:17.440Z,74.23
2023-01-19T23:27:43.717Z,73.27
2023-01-19T23:30:10.428Z,73.71
2023-01-19T23:32:36.712Z,72.01
2023-01-19T23:35:03.018Z,73.71
2023-01-19T23:37:29.272Z,72.88
2023-01-19T23:39:55.593Z,73.39
2023-01-19T23:42:21.920Z,72.47
2023-01-19T23:44:48.200Z,73.19
2023-01-19T23:47:14.485Z,73.09
2023-01-19T23:49:40.797Z,74.08
2023-01-19T23:52:07.512Z,73.77
2023-01-19T23:54:33.867Z,75.04
2023-01-19T23:57:00.131Z,73.70
2023-01-19T23:59:26.386Z,74.01
